sensor_id;sensor_type;location;lat;lon;timestamp;P1;durP1;ratioP1;P2;durP2;ratioP2
42118;SDS011;27783;42.782;23.274;2023-05-10T00:01:12;6.72;;;6.15;;
42118;SDS011;27783;42.782;23.274;2023-05-10T00:03:49;8.68;;;6.90;;
42118;SDS011;27783;42.782;23.274;2023-05-10T00:06:18;6.97;;;6.38;;
42118;SDS011;27783;42.782;23.274;2023-05-10T00:08:44;7.65;;;6.95;;
42118;SDS011;27783;42.782;23.274;2023-05-10T00:11:11;6.45;;;5.80;;
42118;SDS011;27783;42.782;23.274;2023-05-10T00:13:36;6.43;;;5.82;;
42118;SDS011;27783;42.782;23.274;2023-05-10T00:16:03;5.82;;;5.32;;
42118;SDS011;27783;42.782;23.274;2023-05-10T00:18:39;5.22;;;4.72;;
42118;SDS011;27783;42.782;23.274;2023-05-10T00:21:05;6.00;;;5.47;;
42118;SDS011;27783;42.782;23.274;2023-05-10T00:23:32;5.97;;;5.43;;
42118;SDS011;27783;42.782;23.274;2023-05-10T00:25:59;5.13;;;4.23;;
42118;SDS011;27783;42.782;23.274;2023-05-10T00:28:24;6.80;;;5.65;;
42118;SDS011;27783;42.782;23.274;2023-05-10T00:30:49;5.70;;;5.30;;
42118;SDS011;27783;42.782;23.274;2023-05-10T00:33:15;5.28;;;4.80;;
42118;SDS011;27783;42.782;23.274;2023-05-10T00:35:42;6.65;;;5.55;;
42118;SDS011;27783;42.782;23.274;2023-05-10T00:38:07;5.65;;;5.15;;
42118;SDS011;27783;42.782;23.274;2023-05-10T00:40:35;7.18;;;6.47;;
42118;SDS011;27783;42.782;23.274;2023-05-10T00:43:03;6.97;;;6.38;;
42118;SDS011;27783;42.782;23.274;2023-05-10T00:45:29;7.57;;;6.85;;
42118;SDS011;27783;42.782;23.274;2023-05-10T00:47:56;7.88;;;7.18;;
42118;SDS011;27783;42.782;23.274;2023-05-10T00:50:22;9.07;;;8.38;;
42118;SDS011;27783;42.782;23.274;2023-05-10T00:52:49;9.40;;;8.70;;
42118;SDS011;27783;42.782;23.274;2023-05-10T00:55:28;9.45;;;8.68;;
42118;SDS011;27783;42.782;23.274;2023-05-10T00:57:55;10.27;;;7.93;;
42118;SDS011;27783;42.782;23.274;2023-05-10T01:00:21;10.43;;;9.63;;
42118;SDS011;27783;42.782;23.274;2023-05-10T01:02:48;9.10;;;8.35;;
42118;SDS011;27783;42.782;23.274;2023-05-10T01:05:21;11.30;;;10.40;;
42118;SDS011;27783;42.782;23.274;2023-05-10T01:07:51;10.52;;;9.52;;
42118;SDS011;27783;42.782;23.274;2023-05-10T01:10:18;10.48;;;9.57;;
42118;SDS011;27783;42.782;23.274;2023-05-10T01:12:51;12.18;;;11.07;;
42118;SDS011;27783;42.782;23.274;2023-05-10T01:15:17;11.73;;;10.82;;
42118;SDS011;27783;42.782;23.274;2023-05-10T01:17:45;11.77;;;10.73;;
42118;SDS011;27783;42.782;23.274;2023-05-10T01:20:12;13.57;;;12.13;;
42118;SDS011;27783;42.782;23.274;2023-05-10T01:23:00;11.90;;;10.90;;
42118;SDS011;27783;42.782;23.274;2023-05-10T01:25:46;14.30;;;13.07;;
42118;SDS011;27783;42.782;23.274;2023-05-10T01:28:39;11.75;;;10.75;;
42118;SDS011;27783;42.782;23.274;2023-05-10T01:31:33;13.65;;;12.45;;
42118;SDS011;27783;42.782;23.274;2023-05-10T01:38:12;12.07;;;11.10;;
42118;SDS011;27783;42.782;23.274;2023-05-10T01:43:41;15.20;;;13.73;;
42118;SDS011;27783;42.782;23.274;2023-05-10T01:46:20;15.05;;;13.57;;
42118;SDS011;27783;42.782;23.274;2023-05-10T01:49:08;14.10;;;12.73;;
42118;SDS011;27783;42.782;23.274;2023-05-10T01:51:50;13.20;;;12.05;;
42118;SDS011;27783;42.782;23.274;2023-05-10T01:54:20;13.70;;;12.32;;
42118;SDS011;27783;42.782;23.274;2023-05-10T01:56:50;13.75;;;12.55;;
42118;SDS011;27783;42.782;23.274;2023-05-10T01:59:22;13.35;;;12.23;;
42118;SDS011;27783;42.782;23.274;2023-05-10T02:02:07;12.10;;;11.10;;
42118;SDS011;27783;42.782;23.274;2023-05-10T02:04:54;14.05;;;12.95;;
42118;SDS011;27783;42.782;23.274;2023-05-10T02:07:37;13.32;;;12.30;;
42118;SDS011;27783;42.782;23.274;2023-05-10T02:10:07;13.75;;;12.45;;
42118;SDS011;27783;42.782;23.274;2023-05-10T02:12:41;13.93;;;12.85;;
42118;SDS011;27783;42.782;23.274;2023-05-10T02:15:08;15.90;;;14.25;;
42118;SDS011;27783;42.782;23.274;2023-05-10T02:17:38;14.75;;;13.52;;
42118;SDS011;27783;42.782;23.274;2023-05-10T02:20:06;13.48;;;12.27;;
42118;SDS011;27783;42.782;23.274;2023-05-10T02:22:36;13.70;;;12.60;;
42118;SDS011;27783;42.782;23.274;2023-05-10T02:25:05;11.70;;;10.73;;
42118;SDS011;27783;42.782;23.274;2023-05-10T02:27:34;12.93;;;11.82;;
42118;SDS011;27783;42.782;23.274;2023-05-10T02:30:02;11.65;;;10.75;;
42118;SDS011;27783;42.782;23.274;2023-05-10T02:32:29;12.70;;;11.60;;
42118;SDS011;27783;42.782;23.274;2023-05-10T02:34:56;10.15;;;9.35;;
42118;SDS011;27783;42.782;23.274;2023-05-10T02:37:40;10.10;;;9.30;;
42118;SDS011;27783;42.782;23.274;2023-05-10T02:40:07;9.02;;;8.27;;
42118;SDS011;27783;42.782;23.274;2023-05-10T02:42:36;7.63;;;7.03;;
42118;SDS011;27783;42.782;23.274;2023-05-10T02:45:10;7.65;;;7.15;;
42118;SDS011;27783;42.782;23.274;2023-05-10T02:47:39;8.68;;;7.97;;
42118;SDS011;27783;42.782;23.274;2023-05-10T02:50:04;8.85;;;8.05;;
42118;SDS011;27783;42.782;23.274;2023-05-10T02:52:54;8.05;;;7.35;;
42118;SDS011;27783;42.782;23.274;2023-05-10T02:55:19;7.32;;;6.18;;
42118;SDS011;27783;42.782;23.274;2023-05-10T02:58:00;5.82;;;5.32;;
42118;SDS011;27783;42.782;23.274;2023-05-10T03:00:26;6.07;;;5.57;;
42118;SDS011;27783;42.782;23.274;2023-05-10T03:02:53;6.30;;;5.40;;
42118;SDS011;27783;42.782;23.274;2023-05-10T03:05:19;5.55;;;4.93;;
42118;SDS011;27783;42.782;23.274;2023-05-10T03:07:45;5.50;;;5.00;;
42118;SDS011;27783;42.782;23.274;2023-05-10T03:10:12;6.47;;;5.00;;
42118;SDS011;27783;42.782;23.274;2023-05-10T03:17:58;5.70;;;5.20;;
42118;SDS011;27783;42.782;23.274;2023-05-10T03:23:12;6.38;;;5.78;;
42118;SDS011;27783;42.782;23.274;2023-05-10T03:25:39;9.13;;;6.75;;
42118;SDS011;27783;42.782;23.274;2023-05-10T03:28:06;7.15;;;6.45;;
42118;SDS011;27783;42.782;23.274;2023-05-10T03:30:33;7.10;;;6.45;;
42118;SDS011;27783;42.782;23.274;2023-05-10T03:33:04;7.07;;;6.43;;
42118;SDS011;27783;42.782;23.274;2023-05-10T03:35:31;8.23;;;7.38;;
42118;SDS011;27783;42.782;23.274;2023-05-10T03:37:58;7.60;;;6.70;;
42118;SDS011;27783;42.782;23.274;2023-05-10T03:40:24;7.65;;;6.95;;
42118;SDS011;27783;42.782;23.274;2023-05-10T03:43:05;6.70;;;6.00;;
42118;SDS011;27783;42.782;23.274;2023-05-10T03:45:31;6.53;;;6.00;;
42118;SDS011;27783;42.782;23.274;2023-05-10T03:47:57;8.98;;;6.57;;
42118;SDS011;27783;42.782;23.274;2023-05-10T03:50:25;6.75;;;6.15;;
42118;SDS011;27783;42.782;23.274;2023-05-10T03:52:51;6.53;;;5.93;;
42118;SDS011;27783;42.782;23.274;2023-05-10T03:55:20;7.10;;;5.57;;
42118;SDS011;27783;42.782;23.274;2023-05-10T03:57:46;7.43;;;6.25;;
42118;SDS011;27783;42.782;23.274;2023-05-10T04:00:14;6.50;;;5.90;;
42118;SDS011;27783;42.782;23.274;2023-05-10T04:02:48;7.10;;;6.40;;
42118;SDS011;27783;42.782;23.274;2023-05-10T04:05:15;8.32;;;5.80;;
42118;SDS011;27783;42.782;23.274;2023-05-10T04:07:41;6.75;;;6.07;;
42118;SDS011;27783;42.782;23.274;2023-05-10T04:10:06;6.78;;;6.13;;
42118;SDS011;27783;42.782;23.274;2023-05-10T04:12:33;7.05;;;6.35;;
42118;SDS011;27783;42.782;23.274;2023-05-10T04:14:58;6.35;;;5.82;;
42118;SDS011;27783;42.782;23.274;2023-05-10T04:17:24;6.65;;;4.57;;
42118;SDS011;27783;42.782;23.274;2023-05-10T04:19:49;5.40;;;4.90;;
42118;SDS011;27783;42.782;23.274;2023-05-10T04:22:19;6.30;;;4.88;;
42118;SDS011;27783;42.782;23.274;2023-05-10T04:24:46;5.90;;;5.30;;
42118;SDS011;27783;42.782;23.274;2023-05-10T04:27:14;5.35;;;4.88;;
42118;SDS011;27783;42.782;23.274;2023-05-10T04:29:40;6.50;;;5.28;;
42118;SDS011;27783;42.782;23.274;2023-05-10T04:32:06;6.50;;;5.07;;
42118;SDS011;27783;42.782;23.274;2023-05-10T04:34:33;9.77;;;6.22;;
42118;SDS011;27783;42.782;23.274;2023-05-10T04:36:59;5.57;;;4.93;;
42118;SDS011;27783;42.782;23.274;2023-05-10T04:39:25;6.47;;;5.57;;
42118;SDS011;27783;42.782;23.274;2023-05-10T04:41:50;5.70;;;5.20;;
42118;SDS011;27783;42.782;23.274;2023-05-10T04:44:15;5.88;;;5.35;;
42118;SDS011;27783;42.782;23.274;2023-05-10T04:46:41;5.55;;;5.05;;
42118;SDS011;27783;42.782;23.274;2023-05-10T04:49:06;6.85;;;6.25;;
42118;SDS011;27783;42.782;23.274;2023-05-10T04:51:32;6.95;;;5.88;;
42118;SDS011;27783;42.782;23.274;2023-05-10T04:53:57;7.07;;;6.38;;
42118;SDS011;27783;42.782;23.274;2023-05-10T04:56:23;7.68;;;7.07;;
42118;SDS011;27783;42.782;23.274;2023-05-10T04:58:48;6.60;;;6.10;;
42118;SDS011;27783;42.782;23.274;2023-05-10T05:01:14;6.40;;;5.80;;
42118;SDS011;27783;42.782;23.274;2023-05-10T05:03:39;5.50;;;5.00;;
42118;SDS011;27783;42.782;23.274;2023-05-10T05:06:05;7.05;;;6.38;;
42118;SDS011;27783;42.782;23.274;2023-05-10T05:08:30;7.70;;;6.97;;
42118;SDS011;27783;42.782;23.274;2023-05-10T05:10:56;9.95;;;6.60;;
42118;SDS011;27783;42.782;23.274;2023-05-10T05:13:21;8.95;;;7.88;;
42118;SDS011;27783;42.782;23.274;2023-05-10T05:15:47;8.23;;;6.90;;
42118;SDS011;27783;42.782;23.274;2023-05-10T05:18:12;8.50;;;7.05;;
42118;SDS011;27783;42.782;23.274;2023-05-10T05:20:37;9.68;;;7.45;;
42118;SDS011;27783;42.782;23.274;2023-05-10T05:23:03;7.53;;;6.90;;
42118;SDS011;27783;42.782;23.274;2023-05-10T05:25:29;8.13;;;7.15;;
42118;SDS011;27783;42.782;23.274;2023-05-10T05:27:54;11.23;;;6.47;;
42118;SDS011;27783;42.782;23.274;2023-05-10T05:30:19;7.65;;;6.90;;
42118;SDS011;27783;42.782;23.274;2023-05-10T05:32:45;7.63;;;6.93;;
42118;SDS011;27783;42.782;23.274;2023-05-10T05:35:12;7.18;;;6.53;;
42118;SDS011;27783;42.782;23.274;2023-05-10T05:37:37;7.53;;;6.82;;
42118;SDS011;27783;42.782;23.274;2023-05-10T05:40:03;10.27;;;7.15;;
42118;SDS011;27783;42.782;23.274;2023-05-10T05:42:29;11.68;;;7.75;;
42118;SDS011;27783;42.782;23.274;2023-05-10T05:44:56;7.22;;;6.63;;
42118;SDS011;27783;42.782;23.274;2023-05-10T05:47:21;8.93;;;7.65;;
42118;SDS011;27783;42.782;23.274;2023-05-10T05:49:46;12.15;;;9.27;;
42118;SDS011;27783;42.782;23.274;2023-05-10T05:52:12;12.25;;;7.95;;
42118;SDS011;27783;42.782;23.274;2023-05-10T05:54:37;7.13;;;6.50;;
42118;SDS011;27783;42.782;23.274;2023-05-10T05:57:03;7.13;;;6.43;;
42118;SDS011;27783;42.782;23.274;2023-05-10T05:59:28;8.18;;;7.35;;
42118;SDS011;27783;42.782;23.274;2023-05-10T06:01:54;9.00;;;8.05;;
42118;SDS011;27783;42.782;23.274;2023-05-10T06:04:20;7.03;;;6.00;;
42118;SDS011;27783;42.782;23.274;2023-05-10T06:06:46;7.40;;;6.70;;
42118;SDS011;27783;42.782;23.274;2023-05-10T06:09:13;6.63;;;5.80;;
42118;SDS011;27783;42.782;23.274;2023-05-10T06:11:38;7.82;;;5.68;;
42118;SDS011;27783;42.782;23.274;2023-05-10T06:14:04;7.10;;;6.47;;
42118;SDS011;27783;42.782;23.274;2023-05-10T06:16:33;10.32;;;7.05;;
42118;SDS011;27783;42.782;23.274;2023-05-10T06:18:59;6.82;;;6.22;;
42118;SDS011;27783;42.782;23.274;2023-05-10T06:21:24;7.72;;;7.00;;
42118;SDS011;27783;42.782;23.274;2023-05-10T06:23:50;7.72;;;6.15;;
42118;SDS011;27783;42.782;23.274;2023-05-10T06:26:15;6.95;;;6.30;;
42118;SDS011;27783;42.782;23.274;2023-05-10T06:28:41;7.22;;;6.55;;
42118;SDS011;27783;42.782;23.274;2023-05-10T06:31:06;7.78;;;7.00;;
42118;SDS011;27783;42.782;23.274;2023-05-10T06:33:33;9.50;;;6.75;;
42118;SDS011;27783;42.782;23.274;2023-05-10T06:35:59;6.93;;;6.22;;
42118;SDS011;27783;42.782;23.274;2023-05-10T06:38:24;9.38;;;7.97;;
42118;SDS011;27783;42.782;23.274;2023-05-10T06:40:51;6.65;;;6.05;;
42118;SDS011;27783;42.782;23.274;2023-05-10T06:43:16;6.47;;;5.88;;
42118;SDS011;27783;42.782;23.274;2023-05-10T06:45:42;7.43;;;5.50;;
42118;SDS011;27783;42.782;23.274;2023-05-10T06:48:07;6.07;;;5.13;;
42118;SDS011;27783;42.782;23.274;2023-05-10T06:50:33;5.90;;;5.30;;
42118;SDS011;27783;42.782;23.274;2023-05-10T06:52:59;6.10;;;5.53;;
42118;SDS011;27783;42.782;23.274;2023-05-10T06:55:26;6.00;;;5.20;;
42118;SDS011;27783;42.782;23.274;2023-05-10T06:57:52;5.63;;;5.13;;
42118;SDS011;27783;42.782;23.274;2023-05-10T07:00:18;5.88;;;5.38;;
42118;SDS011;27783;42.782;23.274;2023-05-10T07:02:44;5.90;;;5.40;;
42118;SDS011;27783;42.782;23.274;2023-05-10T07:05:10;5.00;;;4.60;;
42118;SDS011;27783;42.782;23.274;2023-05-10T07:07:37;5.75;;;5.25;;
42118;SDS011;27783;42.782;23.274;2023-05-10T07:10:02;5.78;;;5.15;;
42118;SDS011;27783;42.782;23.274;2023-05-10T07:12:28;6.68;;;6.15;;
42118;SDS011;27783;42.782;23.274;2023-05-10T07:14:54;5.15;;;4.75;;
42118;SDS011;27783;42.782;23.274;2023-05-10T07:17:19;5.10;;;4.50;;
42118;SDS011;27783;42.782;23.274;2023-05-10T07:19:45;4.60;;;3.97;;
42118;SDS011;27783;42.782;23.274;2023-05-10T07:22:10;5.28;;;4.72;;
42118;SDS011;27783;42.782;23.274;2023-05-10T07:24:36;6.85;;;5.25;;
42118;SDS011;27783;42.782;23.274;2023-05-10T07:27:01;6.00;;;5.22;;
42118;SDS011;27783;42.782;23.274;2023-05-10T07:29:27;6.30;;;5.72;;
42118;SDS011;27783;42.782;23.274;2023-05-10T07:31:53;5.05;;;4.50;;
42118;SDS011;27783;42.782;23.274;2023-05-10T07:34:19;6.65;;;5.90;;
42118;SDS011;27783;42.782;23.274;2023-05-10T07:36:44;4.60;;;3.97;;
42118;SDS011;27783;42.782;23.274;2023-05-10T07:39:11;5.35;;;4.85;;
42118;SDS011;27783;42.782;23.274;2023-05-10T07:41:37;7.30;;;5.10;;
42118;SDS011;27783;42.782;23.274;2023-05-10T07:44:03;7.35;;;5.10;;
42118;SDS011;27783;42.782;23.274;2023-05-10T07:46:29;9.00;;;5.35;;
42118;SDS011;27783;42.782;23.274;2023-05-10T07:48:55;6.13;;;5.63;;
42118;SDS011;27783;42.782;23.274;2023-05-10T07:51:20;6.03;;;4.95;;
42118;SDS011;27783;42.782;23.274;2023-05-10T07:53:46;5.32;;;4.93;;
42118;SDS011;27783;42.782;23.274;2023-05-10T07:56:24;6.80;;;5.13;;
42118;SDS011;27783;42.782;23.274;2023-05-10T07:58:52;6.20;;;5.00;;
42118;SDS011;27783;42.782;23.274;2023-05-10T08:01:19;7.23;;;6.40;;
42118;SDS011;27783;42.782;23.274;2023-05-10T08:03:44;6.25;;;5.65;;
42118;SDS011;27783;42.782;23.274;2023-05-10T08:06:10;7.65;;;6.40;;
42118;SDS011;27783;42.782;23.274;2023-05-10T08:08:36;6.90;;;6.30;;
42118;SDS011;27783;42.782;23.274;2023-05-10T08:11:01;6.95;;;6.32;;
42118;SDS011;27783;42.782;23.274;2023-05-10T08:13:27;6.30;;;5.80;;
42118;SDS011;27783;42.782;23.274;2023-05-10T08:15:52;10.82;;;5.95;;
42118;SDS011;27783;42.782;23.274;2023-05-10T08:18:18;9.85;;;6.40;;
42118;SDS011;27783;42.782;23.274;2023-05-10T08:20:44;8.13;;;7.30;;
42118;SDS011;27783;42.782;23.274;2023-05-10T08:23:09;7.05;;;6.50;;
42118;SDS011;27783;42.782;23.274;2023-05-10T08:25:35;6.30;;;5.70;;
42118;SDS011;27783;42.782;23.274;2023-05-10T08:28:00;6.22;;;5.72;;
42118;SDS011;27783;42.782;23.274;2023-05-10T08:30:26;7.07;;;6.47;;
42118;SDS011;27783;42.782;23.274;2023-05-10T08:32:51;7.15;;;5.82;;
42118;SDS011;27783;42.782;23.274;2023-05-10T08:35:16;7.00;;;6.25;;
42118;SDS011;27783;42.782;23.274;2023-05-10T08:37:42;5.13;;;4.57;;
42118;SDS011;27783;42.782;23.274;2023-05-10T08:40:07;6.95;;;6.15;;
42118;SDS011;27783;42.782;23.274;2023-05-10T08:42:36;6.90;;;6.30;;
42118;SDS011;27783;42.782;23.274;2023-05-10T08:45:05;8.50;;;5.97;;
42118;SDS011;27783;42.782;23.274;2023-05-10T08:47:32;6.13;;;5.63;;
42118;SDS011;27783;42.782;23.274;2023-05-10T08:50:00;4.85;;;4.45;;
42118;SDS011;27783;42.782;23.274;2023-05-10T08:52:28;5.40;;;4.90;;
42118;SDS011;27783;42.782;23.274;2023-05-10T08:54:56;6.10;;;5.10;;
42118;SDS011;27783;42.782;23.274;2023-05-10T08:57:23;5.50;;;4.95;;
42118;SDS011;27783;42.782;23.274;2023-05-10T08:59:48;6.33;;;5.83;;
42118;SDS011;27783;42.782;23.274;2023-05-10T09:02:14;5.53;;;4.68;;
42118;SDS011;27783;42.782;23.274;2023-05-10T09:04:39;6.20;;;5.70;;
42118;SDS011;27783;42.782;23.274;2023-05-10T09:07:06;6.30;;;5.82;;
42118;SDS011;27783;42.782;23.274;2023-05-10T09:09:31;6.60;;;6.00;;
42118;SDS011;27783;42.782;23.274;2023-05-10T09:11:58;5.68;;;4.82;;
42118;SDS011;27783;42.782;23.274;2023-05-10T09:14:24;6.28;;;5.78;;
42118;SDS011;27783;42.782;23.274;2023-05-10T09:16:50;7.00;;;6.40;;
42118;SDS011;27783;42.782;23.274;2023-05-10T09:19:15;6.57;;;5.65;;
42118;SDS011;27783;42.782;23.274;2023-05-10T09:21:41;5.97;;;5.38;;
42118;SDS011;27783;42.782;23.274;2023-05-10T09:24:07;6.35;;;5.30;;
42118;SDS011;27783;42.782;23.274;2023-05-10T09:26:33;8.32;;;5.07;;
42118;SDS011;27783;42.782;23.274;2023-05-10T09:29:00;6.57;;;5.97;;
42118;SDS011;27783;42.782;23.274;2023-05-10T09:31:43;6.70;;;6.10;;
42118;SDS011;27783;42.782;23.274;2023-05-10T09:34:19;7.20;;;6.57;;
42118;SDS011;27783;42.782;23.274;2023-05-10T09:36:57;6.75;;;6.20;;
42118;SDS011;27783;42.782;23.274;2023-05-10T09:39:32;6.97;;;6.25;;
42118;SDS011;27783;42.782;23.274;2023-05-10T09:41:58;6.75;;;6.25;;
42118;SDS011;27783;42.782;23.274;2023-05-10T09:44:27;7.40;;;6.80;;
42118;SDS011;27783;42.782;23.274;2023-05-10T09:46:53;7.18;;;6.53;;
42118;SDS011;27783;42.782;23.274;2023-05-10T09:49:19;7.60;;;6.90;;
42118;SDS011;27783;42.782;23.274;2023-05-10T09:51:45;6.78;;;6.18;;
42118;SDS011;27783;42.782;23.274;2023-05-10T09:54:12;6.13;;;5.63;;
42118;SDS011;27783;42.782;23.274;2023-05-10T09:56:39;6.63;;;5.28;;
42118;SDS011;27783;42.782;23.274;2023-05-10T09:59:06;6.30;;;5.80;;
42118;SDS011;27783;42.782;23.274;2023-05-10T10:01:33;6.60;;;5.38;;
42118;SDS011;27783;42.782;23.274;2023-05-10T10:04:02;6.22;;;5.72;;
42118;SDS011;27783;42.782;23.274;2023-05-10T10:06:29;10.15;;;6.57;;
42118;SDS011;27783;42.782;23.274;2023-05-10T10:08:54;7.65;;;5.78;;
42118;SDS011;27783;42.782;23.274;2023-05-10T10:11:21;6.82;;;5.72;;
42118;SDS011;27783;42.782;23.274;2023-05-10T10:13:49;7.80;;;6.72;;
42118;SDS011;27783;42.782;23.274;2023-05-10T10:16:15;6.35;;;5.75;;
42118;SDS011;27783;42.782;23.274;2023-05-10T10:18:41;5.85;;;5.25;;
42118;SDS011;27783;42.782;23.274;2023-05-10T10:21:09;10.73;;;5.50;;
42118;SDS011;27783;42.782;23.274;2023-05-10T10:23:35;5.65;;;5.25;;
42118;SDS011;27783;42.782;23.274;2023-05-10T10:26:02;6.68;;;6.07;;
42118;SDS011;27783;42.782;23.274;2023-05-10T10:28:36;6.10;;;5.55;;
42118;SDS011;27783;42.782;23.274;2023-05-10T10:31:18;5.18;;;4.78;;
42118;SDS011;27783;42.782;23.274;2023-05-10T10:33:56;5.45;;;4.90;;
42118;SDS011;27783;42.782;23.274;2023-05-10T10:36:29;6.72;;;5.38;;
42118;SDS011;27783;42.782;23.274;2023-05-10T10:38:58;4.65;;;4.35;;
42118;SDS011;27783;42.782;23.274;2023-05-10T10:41:29;6.13;;;4.20;;
42118;SDS011;27783;42.782;23.274;2023-05-10T10:49:37;4.38;;;4.07;;
42118;SDS011;27783;42.782;23.274;2023-05-10T10:52:22;5.13;;;4.63;;
42118;SDS011;27783;42.782;23.274;2023-05-10T10:57:24;5.22;;;4.32;;
42118;SDS011;27783;42.782;23.274;2023-05-10T10:59:51;5.07;;;4.22;;
42118;SDS011;27783;42.782;23.274;2023-05-10T11:02:34;4.97;;;3.95;;
42118;SDS011;27783;42.782;23.274;2023-05-10T11:08:01;4.10;;;3.70;;
42118;SDS011;27783;42.782;23.274;2023-05-10T11:13:32;4.13;;;3.83;;
42118;SDS011;27783;42.782;23.274;2023-05-10T11:19:12;5.05;;;3.47;;
42118;SDS011;27783;42.782;23.274;2023-05-10T11:21:46;3.45;;;3.15;;
42118;SDS011;27783;42.782;23.274;2023-05-10T11:24:13;7.40;;;3.45;;
42118;SDS011;27783;42.782;23.274;2023-05-10T11:26:52;4.40;;;4.00;;
42118;SDS011;27783;42.782;23.274;2023-05-10T11:29:18;3.50;;;3.30;;
42118;SDS011;27783;42.782;23.274;2023-05-10T11:31:44;3.67;;;3.35;;
42118;SDS011;27783;42.782;23.274;2023-05-10T11:34:12;4.03;;;3.47;;
42118;SDS011;27783;42.782;23.274;2023-05-10T11:36:54;4.57;;;4.25;;
42118;SDS011;27783;42.782;23.274;2023-05-10T11:39:21;4.43;;;3.78;;
42118;SDS011;27783;42.782;23.274;2023-05-10T11:41:49;5.05;;;4.65;;
42118;SDS011;27783;42.782;23.274;2023-05-10T11:44:15;3.92;;;3.63;;
42118;SDS011;27783;42.782;23.274;2023-05-10T11:46:40;4.10;;;3.70;;
42118;SDS011;27783;42.782;23.274;2023-05-10T11:49:06;3.85;;;3.53;;
42118;SDS011;27783;42.782;23.274;2023-05-10T11:51:33;4.13;;;3.83;;
42118;SDS011;27783;42.782;23.274;2023-05-10T11:54:05;4.10;;;3.70;;
42118;SDS011;27783;42.782;23.274;2023-05-10T11:56:34;4.70;;;4.22;;
42118;SDS011;27783;42.782;23.274;2023-05-10T11:59:01;6.90;;;4.30;;
42118;SDS011;27783;42.782;23.274;2023-05-10T12:01:27;5.15;;;4.65;;
42118;SDS011;27783;42.782;23.274;2023-05-10T12:03:53;5.68;;;5.10;;
42118;SDS011;27783;42.782;23.274;2023-05-10T12:06:26;5.75;;;5.18;;
42118;SDS011;27783;42.782;23.274;2023-05-10T12:08:53;6.60;;;6.10;;
42118;SDS011;27783;42.782;23.274;2023-05-10T12:11:19;7.43;;;6.82;;
42118;SDS011;27783;42.782;23.274;2023-05-10T12:13:46;6.97;;;6.40;;
42118;SDS011;27783;42.782;23.274;2023-05-10T12:16:13;6.43;;;5.93;;
42118;SDS011;27783;42.782;23.274;2023-05-10T12:18:40;6.45;;;5.85;;
42118;SDS011;27783;42.782;23.274;2023-05-10T12:21:06;5.70;;;5.20;;
42118;SDS011;27783;42.782;23.274;2023-05-10T12:23:32;6.05;;;5.53;;
42118;SDS011;27783;42.782;23.274;2023-05-10T12:26:08;6.45;;;5.95;;
42118;SDS011;27783;42.782;23.274;2023-05-10T12:28:35;6.07;;;5.47;;
42118;SDS011;27783;42.782;23.274;2023-05-10T12:31:01;6.68;;;5.65;;
42118;SDS011;27783;42.782;23.274;2023-05-10T12:33:27;5.75;;;5.25;;
42118;SDS011;27783;42.782;23.274;2023-05-10T12:36:00;6.10;;;5.50;;
42118;SDS011;27783;42.782;23.274;2023-05-10T12:41:02;10.13;;;7.25;;
42118;SDS011;27783;42.782;23.274;2023-05-10T12:43:30;7.45;;;6.78;;
42118;SDS011;27783;42.782;23.274;2023-05-10T12:45:55;8.75;;;7.78;;
42118;SDS011;27783;42.782;23.274;2023-05-10T12:48:21;10.10;;;8.40;;
42118;SDS011;27783;42.782;23.274;2023-05-10T12:50:47;8.45;;;7.75;;
42118;SDS011;27783;42.782;23.274;2023-05-10T12:53:14;11.10;;;7.45;;
42118;SDS011;27783;42.782;23.274;2023-05-10T12:55:43;8.25;;;7.47;;
42118;SDS011;27783;42.782;23.274;2023-05-10T12:58:09;9.27;;;6.85;;
42118;SDS011;27783;42.782;23.274;2023-05-10T13:00:35;7.13;;;6.53;;
42118;SDS011;27783;42.782;23.274;2023-05-10T13:03:02;7.93;;;7.25;;
42118;SDS011;27783;42.782;23.274;2023-05-10T13:05:30;7.30;;;6.72;;
42118;SDS011;27783;42.782;23.274;2023-05-10T13:07:55;11.18;;;8.32;;
42118;SDS011;27783;42.782;23.274;2023-05-10T13:10:21;8.15;;;7.45;;
42118;SDS011;27783;42.782;23.274;2023-05-10T13:12:48;7.47;;;6.88;;
42118;SDS011;27783;42.782;23.274;2023-05-10T13:15:14;11.30;;;8.10;;
42118;SDS011;27783;42.782;23.274;2023-05-10T13:17:39;8.02;;;7.32;;
42118;SDS011;27783;42.782;23.274;2023-05-10T13:20:07;8.13;;;7.50;;
42118;SDS011;27783;42.782;23.274;2023-05-10T13:22:35;7.10;;;5.97;;
42118;SDS011;27783;42.782;23.274;2023-05-10T13:25:01;7.53;;;6.82;;
42118;SDS011;27783;42.782;23.274;2023-05-10T13:27:27;10.32;;;7.68;;
42118;SDS011;27783;42.782;23.274;2023-05-10T13:29:52;8.60;;;6.60;;
42118;SDS011;27783;42.782;23.274;2023-05-10T13:32:20;6.30;;;5.47;;
42118;SDS011;27783;42.782;23.274;2023-05-10T13:34:46;6.63;;;5.45;;
42118;SDS011;27783;42.782;23.274;2023-05-10T13:37:12;9.55;;;6.07;;
42118;SDS011;27783;42.782;23.274;2023-05-10T13:39:38;6.05;;;5.53;;
42118;SDS011;27783;42.782;23.274;2023-05-10T13:42:04;7.55;;;5.55;;
42118;SDS011;27783;42.782;23.274;2023-05-10T13:44:30;5.90;;;5.32;;
42118;SDS011;27783;42.782;23.274;2023-05-10T13:46:58;8.20;;;5.72;;
42118;SDS011;27783;42.782;23.274;2023-05-10T13:49:23;6.68;;;5.30;;
42118;SDS011;27783;42.782;23.274;2023-05-10T13:51:49;6.22;;;5.70;;
42118;SDS011;27783;42.782;23.274;2023-05-10T13:54:14;5.88;;;5.38;;
42118;SDS011;27783;42.782;23.274;2023-05-10T13:56:41;6.32;;;5.82;;
42118;SDS011;27783;42.782;23.274;2023-05-10T13:59:07;6.63;;;5.25;;
42118;SDS011;27783;42.782;23.274;2023-05-10T14:01:32;7.35;;;5.60;;
42118;SDS011;27783;42.782;23.274;2023-05-10T14:03:58;6.25;;;5.68;;
42118;SDS011;27783;42.782;23.274;2023-05-10T14:06:24;7.15;;;5.80;;
42118;SDS011;27783;42.782;23.274;2023-05-10T14:08:50;9.05;;;6.47;;
42118;SDS011;27783;42.782;23.274;2023-05-10T14:11:15;5.90;;;5.32;;
42118;SDS011;27783;42.782;23.274;2023-05-10T14:13:40;6.82;;;6.22;;
42118;SDS011;27783;42.782;23.274;2023-05-10T14:16:06;6.72;;;6.07;;
42118;SDS011;27783;42.782;23.274;2023-05-10T14:18:31;6.32;;;5.72;;
42118;SDS011;27783;42.782;23.274;2023-05-10T14:20:57;7.40;;;5.53;;
42118;SDS011;27783;42.782;23.274;2023-05-10T14:23:22;7.03;;;6.35;;
42118;SDS011;27783;42.782;23.274;2023-05-10T14:25:52;7.35;;;6.25;;
42118;SDS011;27783;42.782;23.274;2023-05-10T14:28:19;7.60;;;6.32;;
42118;SDS011;27783;42.782;23.274;2023-05-10T14:30:47;7.00;;;6.50;;
42118;SDS011;27783;42.782;23.274;2023-05-10T14:33:13;7.68;;;6.93;;
42118;SDS011;27783;42.782;23.274;2023-05-10T14:35:38;6.95;;;6.25;;
42118;SDS011;27783;42.782;23.274;2023-05-10T14:38:04;8.40;;;6.22;;
42118;SDS011;27783;42.782;23.274;2023-05-10T14:40:29;8.65;;;6.00;;
42118;SDS011;27783;42.782;23.274;2023-05-10T14:42:55;7.18;;;6.05;;
42118;SDS011;27783;42.782;23.274;2023-05-10T14:45:21;9.63;;;7.45;;
42118;SDS011;27783;42.782;23.274;2023-05-10T14:47:47;8.48;;;7.78;;
42118;SDS011;27783;42.782;23.274;2023-05-10T14:50:15;6.88;;;6.18;;
42118;SDS011;27783;42.782;23.274;2023-05-10T14:52:41;12.45;;;8.85;;
42118;SDS011;27783;42.782;23.274;2023-05-10T14:55:07;9.32;;;6.55;;
42118;SDS011;27783;42.782;23.274;2023-05-10T14:57:34;8.05;;;6.15;;
42118;SDS011;27783;42.782;23.274;2023-05-10T15:00:00;6.93;;;6.22;;
42118;SDS011;27783;42.782;23.274;2023-05-10T15:02:25;7.63;;;6.53;;
42118;SDS011;27783;42.782;23.274;2023-05-10T15:04:51;8.10;;;7.35;;
42118;SDS011;27783;42.782;23.274;2023-05-10T15:07:18;11.93;;;7.22;;
42118;SDS011;27783;42.782;23.274;2023-05-10T15:09:44;7.25;;;6.55;;